createdAt,value
2022-12-13T00:05:45.453Z,15.65
2022-12-13T00:15:59.423Z,14.45
2022-12-13T00:26:12.052Z,14.63
2022-12-13T00:36:15.211Z,14.27
2022-12-13T00:46:21.376Z,15.20
2022-12-13T00:56:27.496Z,14.50
2022-12-13T01:06:39.461Z,15.85
2022-12-13T01:16:41.319Z,14.95
2022-12-13T01:27:01.429Z,14.52
2022-12-13T01:37:13.096Z,16.60
2022-12-13T01:47:19.643Z,15.27
2022-12-13T01:57:23.281Z,17.23
2022-12-13T02:07:29.588Z,18.05
2022-12-13T02:17:53.164Z,17.20
2022-12-13T02:28:31.011Z,17.57
2022-12-13T02:38:41.978Z,16.52
2022-12-13T02:48:45.971Z,16.40
2022-12-13T03:09:33.252Z,16.45
2022-12-13T03:19:35.499Z,15.25
2022-12-13T03:29:38.205Z,16.95
2022-12-13T03:39:43.914Z,15.25
2022-12-13T03:49:47.588Z,15.80
2022-12-13T03:59:56.241Z,17.33
2022-12-13T04:09:57.975Z,15.80
2022-12-13T04:20:01.972Z,14.93
2022-12-13T04:40:10.415Z,16.05
2022-12-13T04:50:13.328Z,16.27
2022-12-13T05:00:17.511Z,16.10
2022-12-13T05:10:34.307Z,15.68
2022-12-13T05:20:41.012Z,17.33
2022-12-13T05:30:44.943Z,17.55
2022-12-13T05:40:47.556Z,16.52
2022-12-13T05:50:49.378Z,16.88
2022-12-13T06:00:53.180Z,18.10
2022-12-13T06:11:10.760Z,16.80
2022-12-13T06:21:13.794Z,16.40
2022-12-13T06:31:15.769Z,17.35
2022-12-13T06:41:18.356Z,17.40
2022-12-13T06:51:22.819Z,17.30
2022-12-13T07:01:28.265Z,20.30
2022-12-13T07:11:39.645Z,17.35
2022-12-13T07:21:41.337Z,19.83
2022-12-13T07:31:48.022Z,19.50
2022-12-13T07:41:50.881Z,16.67
2022-12-13T07:51:55.842Z,15.10
2022-12-13T08:01:57.707Z,15.77
2022-12-13T08:12:04.284Z,13.73
2022-12-13T08:22:07.160Z,13.55
2022-12-13T08:32:15.976Z,12.75
2022-12-13T08:42:20.346Z,12.20
2022-12-13T08:52:31.755Z,14.95
2022-12-13T09:02:38.457Z,13.25
2022-12-13T09:12:46.231Z,10.63
2022-12-13T09:22:48.044Z,8.23
2022-12-13T09:32:50.650Z,9.40
2022-12-13T09:43:20.429Z,8.83
2022-12-13T09:53:22.753Z,7.03
2022-12-13T10:03:27.236Z,6.85
2022-12-13T10:14:06.845Z,6.55
2022-12-13T10:24:31.394Z,7.72
2022-12-13T10:34:37.625Z,7.65
2022-12-13T10:44:42.657Z,7.45
2022-12-13T10:54:48.307Z,7.68
2022-12-13T11:05:23.362Z,7.60
2022-12-13T11:15:37.137Z,8.00
2022-12-13T11:25:43.882Z,7.78
2022-12-13T11:36:07.771Z,8.20
2022-12-13T11:46:20.222Z,7.38
2022-12-13T11:56:23.870Z,7.83
2022-12-13T12:06:44.473Z,8.18
2022-12-13T12:16:59.494Z,8.82
2022-12-13T12:27:25.342Z,9.25
2022-12-13T12:37:42.899Z,8.00
2022-12-13T12:59:10.662Z,8.75
2022-12-13T13:09:17.095Z,8.13
2022-12-13T13:19:35.537Z,7.90
2022-12-13T13:29:43.026Z,7.88
2022-12-13T13:39:59.133Z,8.50
2022-12-13T13:50:12.977Z,8.00
2022-12-13T14:00:44.387Z,8.77
2022-12-13T14:11:22.272Z,8.60
2022-12-13T14:22:00.135Z,9.23
2022-12-13T14:32:02.966Z,9.02
2022-12-13T14:42:30.445Z,15.35
2022-12-13T14:52:42.609Z,11.65
2022-12-13T15:02:51.941Z,15.85
2022-12-13T15:12:55.052Z,16.00
2022-12-13T15:23:01.148Z,15.63
2022-12-13T15:33:22.443Z,17.20
2022-12-13T15:43:46.136Z,12.88
2022-12-13T15:54:11.518Z,13.68
2022-12-13T16:04:29.523Z,12.18
2022-12-13T16:14:49.588Z,15.05
2022-12-13T16:25:01.238Z,17.45
2022-12-13T16:35:03.427Z,15.60
2022-12-13T16:45:39.986Z,17.10
2022-12-13T16:55:29.413Z,16.08
2022-12-13T17:05:33.839Z,17.03
2022-12-13T17:15:40.978Z,29.02
2022-12-13T17:25:44.469Z,18.15
2022-12-13T17:35:47.444Z,19.07
2022-12-13T17:46:02.868Z,18.83
2022-12-13T17:56:08.784Z,21.83
2022-12-13T18:06:15.063Z,20.25
2022-12-13T18:16:19.238Z,20.52
2022-12-13T18:36:27.834Z,21.10
2022-12-13T18:46:35.518Z,23.33
2022-12-13T18:56:38.237Z,24.35
2022-12-13T19:06:51.309Z,25.90
2022-12-13T19:16:56.584Z,28.90
2022-12-13T19:27:02.604Z,29.17
2022-12-13T19:37:06.767Z,29.92
2022-12-13T19:47:12.720Z,30.70
2022-12-13T19:57:16.546Z,31.85
2022-12-13T20:07:19.459Z,34.50
2022-12-13T20:17:23.354Z,40.08
2022-12-13T20:27:28.110Z,40.97
2022-12-13T20:37:34.911Z,46.20
2022-12-13T20:47:39.043Z,43.95
2022-12-13T20:57:41.786Z,42.10
2022-12-13T21:08:04.607Z,44.22
2022-12-13T21:18:09.109Z,38.25
2022-12-13T21:28:11.460Z,37.67
2022-12-13T21:38:13.300Z,45.40
2022-12-13T21:48:15.550Z,43.08
2022-12-13T21:58:36.002Z,46.97
2022-12-13T22:08:43.937Z,48.10
2022-12-13T22:18:48.294Z,50.88
2022-12-13T22:28:51.111Z,54.08
2022-12-13T22:38:54.934Z,48.80
2022-12-13T22:48:56.901Z,51.05
2022-12-13T22:59:02.238Z,45.35
2022-12-13T23:09:10.395Z,42.70
2022-12-13T23:29:40.634Z,45.45
2022-12-13T23:39:48.376Z,46.88
2022-12-13T23:49:53.429Z,44.90
2022-12-13T23:59:56.120Z,46.25
